Time;durP1;ratioP1;P1;durP2;ratioP2;P2;SDS_P1;SDS_P2;PMS_P1;PMS_P2;Temp;Humidity;BMP_temperature;BMP_pressure;BME280_temperature;BME280_humidity;BME280_pressure;Samples;Min_cycle;Max_cycle;Signal;HPM_P1;HPM_P2
2023/03/29 00:00:59;;;;;;;3.50;1.30;;;10.20;96.70;;;;;;4994648;28;20069;-74
2023/03/29 00:03:29;;;;;;;3.05;1.55;;;10.20;96.70;;;;;;5000522;28;20049;-73
2023/03/29 00:06:01;;;;;;;1.95;1.20;;;10.20;96.70;;;;;;5004829;28;20049;-74
2023/03/29 00:08:38;;;;;;;2.08;1.40;;;10.30;96.70;;;;;;5001153;28;20060;-74
2023/03/29 00:11:07;;;;;;;5.60;1.90;;;10.20;96.70;;;;;;4992283;28;20391;-73
2023/03/29 00:13:35;;;;;;;2.70;1.40;;;10.10;96.70;;;;;;5004909;28;20049;-74
2023/03/29 00:16:04;;;;;;;3.22;1.52;;;10.10;96.70;;;;;;4992406;28;20054;-74
2023/03/29 00:18:32;;;;;;;1.95;1.20;;;10.00;96.70;;;;;;5009590;28;20414;-74
2023/03/29 00:21:00;;;;;;;2.53;1.33;;;10.00;96.70;;;;;;5005036;28;20478;-74
2023/03/29 00:23:30;;;;;;;3.25;1.30;;;9.90;96.70;;;;;;5008529;28;20046;-74
2023/03/29 00:25:58;;;;;;;2.88;1.27;;;10.00;96.70;;;;;;5023186;28;20497;-73
2023/03/29 00:28:26;;;;;;;1.98;1.38;;;10.00;96.70;;;;;;5006605;28;20471;-74
2023/03/29 00:31:04;;;;;;;2.50;1.60;;;9.90;96.70;;;;;;5011929;28;20045;-73
2023/03/29 00:33:33;;;;;;;2.13;1.20;;;9.90;96.70;;;;;;4997271;28;20068;-74
2023/03/29 00:36:00;;;;;;;5.97;1.50;;;9.80;96.70;;;;;;4995357;28;20412;-74
2023/03/29 00:38:31;;;;;;;3.40;1.50;;;9.70;96.70;;;;;;5005935;28;20053;-74
2023/03/29 00:40:59;;;;;;;2.05;1.23;;;9.70;96.70;;;;;;5005282;28;20042;-74
2023/03/29 00:43:28;;;;;;;3.83;1.40;;;9.70;96.70;;;;;;5001100;28;20106;-74
2023/03/29 00:45:56;;;;;;;2.72;1.40;;;9.50;96.70;;;;;;5004455;28;20045;-74
2023/03/29 00:48:28;;;;;;;3.55;1.67;;;9.60;96.70;;;;;;4992671;28;20312;-73
2023/03/29 00:51:00;;;;;;;2.97;1.65;;;9.70;96.70;;;;;;5005265;28;20101;-73
2023/03/29 00:53:33;;;;;;;2.55;1.50;;;9.80;96.70;;;;;;5005513;28;20058;-73
2023/03/29 00:56:05;;;;;;;4.10;1.60;;;9.50;96.70;;;;;;5010962;28;20053;-73
2023/03/29 00:58:37;;;;;;;2.40;1.38;;;9.60;96.70;;;;;;4990525;28;20133;-73
2023/03/29 01:01:09;;;;;;;2.63;1.52;;;9.60;96.70;;;;;;4995789;28;20101;-74
2023/03/29 01:03:44;;;;;;;6.13;2.15;;;9.70;96.70;;;;;;5003599;28;20561;-74
2023/03/29 01:06:16;;;;;;;2.53;2.00;;;9.70;96.70;;;;;;5020333;28;20573;-73
2023/03/29 01:08:51;;;;;;;2.00;1.40;;;9.70;96.70;;;;;;4990710;28;20056;-73
2023/03/29 01:11:23;;;;;;;2.92;1.73;;;9.60;96.70;;;;;;5013894;28;20042;-73
2023/03/29 01:13:57;;;;;;;3.25;1.48;;;9.60;96.70;;;;;;5003333;28;20053;-73
2023/03/29 01:16:29;;;;;;;3.88;1.65;;;9.60;96.70;;;;;;4995631;28;20050;-73
2023/03/29 01:18:59;;;;;;;3.97;1.42;;;9.60;96.70;;;;;;4974370;28;20057;-72
2023/03/29 01:21:31;;;;;;;2.53;1.58;;;9.60;96.70;;;;;;4988879;28;20045;-73
2023/03/29 01:24:44;;;;;;;3.05;1.05;;;9.30;96.70;;;;;;5012363;28;20034;-72
2023/03/29 01:27:16;;;;;;;2.47;1.27;;;9.20;96.70;;;;;;4961981;28;20078;-72
2023/03/29 01:29:52;;;;;;;3.83;1.20;;;9.20;96.70;;;;;;4999368;28;20130;-73
2023/03/29 01:32:25;;;;;;;2.80;1.10;;;9.30;96.70;;;;;;4987811;28;20073;-72
2023/03/29 01:34:58;;;;;;;1.58;0.80;;;9.30;96.70;;;;;;4989229;28;20598;-72
2023/03/29 01:37:31;;;;;;;2.22;0.98;;;9.20;96.70;;;;;;4986273;28;20488;-72
2023/03/29 01:40:00;;;;;;;2.67;0.73;;;9.10;96.70;;;;;;4995546;28;20140;-73
2023/03/29 01:42:41;;;;;;;2.42;0.63;;;8.90;96.70;;;;;;5002452;28;20052;-72
2023/03/29 01:45:19;;;;;;;1.30;0.70;;;9.00;96.70;;;;;;4993947;28;20049;-73
2023/03/29 01:47:56;;;;;;;0.93;0.55;;;9.00;96.70;;;;;;5003005;28;20069;-73
2023/03/29 01:50:36;;;;;;;1.02;0.57;;;9.00;96.70;;;;;;4996433;28;20200;-72
2023/03/29 01:53:08;;;;;;;1.35;0.65;;;8.90;96.70;;;;;;4986558;28;20163;-73
2023/03/29 01:55:41;;;;;;;0.90;0.55;;;9.00;96.70;;;;;;4993402;28;20057;-72
2023/03/29 01:58:12;;;;;;;1.13;0.50;;;9.10;96.70;;;;;;5003213;28;20065;-73
2023/03/29 02:00:44;;;;;;;1.50;0.77;;;9.00;96.70;;;;;;4987824;28;20050;-71
2023/03/29 02:03:16;;;;;;;1.55;0.68;;;9.00;96.70;;;;;;4999541;28;20134;-72
2023/03/29 02:05:45;;;;;;;1.83;0.65;;;9.00;96.70;;;;;;4991670;28;20053;-73
2023/03/29 02:08:15;;;;;;;1.05;0.60;;;9.10;96.70;;;;;;4988335;28;20209;-73
2023/03/29 02:10:43;;;;;;;2.10;0.70;;;9.00;96.70;;;;;;4988209;28;20057;-72
2023/03/29 02:13:11;;;;;;;0.80;0.60;;;8.80;96.70;;;;;;4988101;28;20149;-72
2023/03/29 02:15:43;;;;;;;1.45;0.60;;;8.80;96.70;;;;;;4994382;28;20054;-72
2023/03/29 02:18:12;;;;;;;2.03;0.60;;;8.70;96.70;;;;;;4989244;28;20562;-71
2023/03/29 02:20:46;;;;;;;1.70;0.65;;;8.80;96.70;;;;;;4996919;28;20046;-72
2023/03/29 02:23:20;;;;;;;1.30;0.80;;;8.70;96.70;;;;;;4989912;28;20216;-72
2023/03/29 02:25:55;;;;;;;1.38;0.52;;;8.80;96.70;;;;;;4991869;28;20045;-73
2023/03/29 02:28:26;;;;;;;1.30;0.65;;;8.70;96.70;;;;;;4991279;28;20045;-72
2023/03/29 02:31:03;;;;;;;1.45;0.63;;;8.70;96.70;;;;;;4991650;28;20096;-72
2023/03/29 02:33:44;;;;;;;2.17;0.80;;;8.70;96.70;;;;;;4997498;28;20550;-72
2023/03/29 02:36:18;;;;;;;1.88;0.82;;;8.60;96.70;;;;;;4982299;28;20081;-72
2023/03/29 02:38:46;;;;;;;2.22;0.65;;;8.60;96.70;;;;;;4991824;28;20042;-72
2023/03/29 02:41:15;;;;;;;2.38;0.93;;;8.50;96.70;;;;;;4991563;28;20077;-72
2023/03/29 02:43:45;;;;;;;1.20;0.60;;;8.40;96.70;;;;;;4996321;28;20046;-73
2023/03/29 02:46:17;;;;;;;1.88;0.85;;;8.50;96.70;;;;;;4980819;28;20035;-72
2023/03/29 02:48:47;;;;;;;1.52;0.80;;;8.70;96.70;;;;;;4984102;28;20053;-72
2023/03/29 02:51:19;;;;;;;1.90;0.90;;;8.60;96.70;;;;;;4981719;28;20053;-72
2023/03/29 02:53:54;;;;;;;1.33;0.98;;;8.60;96.70;;;;;;4982385;28;20077;-73
2023/03/29 02:56:22;;;;;;;2.65;0.75;;;8.60;96.70;;;;;;4993089;28;20136;-72
2023/03/29 02:58:50;;;;;;;1.77;1.08;;;8.50;96.70;;;;;;4991122;28;20483;-73
2023/03/29 03:01:21;;;;;;;2.15;0.93;;;8.50;96.70;;;;;;4989865;28;20060;-72
2023/03/29 03:03:50;;;;;;;2.20;1.02;;;8.50;96.70;;;;;;4989352;28;20046;-72
2023/03/29 03:06:20;;;;;;;2.38;1.33;;;8.50;96.70;;;;;;4991494;28;20074;-72
2023/03/29 03:08:49;;;;;;;1.40;0.90;;;8.50;96.70;;;;;;4988244;28;20052;-72
2023/03/29 03:11:17;;;;;;;1.42;0.88;;;8.50;96.70;;;;;;4981716;28;20496;-72
2023/03/29 03:13:46;;;;;;;4.13;1.33;;;8.50;96.70;;;;;;4964779;28;20236;-72
2023/03/29 03:16:14;;;;;;;2.35;1.40;;;8.50;96.70;;;;;;4981495;28;20147;-72
2023/03/29 03:18:44;;;;;;;4.05;1.25;;;8.40;96.70;;;;;;4984332;28;20042;-72
2023/03/29 03:21:12;;;;;;;3.38;1.35;;;8.40;96.70;;;;;;4982742;28;20424;-73
2023/03/29 03:23:40;;;;;;;6.07;1.30;;;8.50;96.70;;;;;;4990057;28;20076;-73
2023/03/29 03:26:09;;;;;;;2.10;1.45;;;8.40;96.70;;;;;;4973771;28;20058;-72
2023/03/29 03:28:39;;;;;;;2.97;1.40;;;8.40;96.70;;;;;;4997797;28;20064;-72
2023/03/29 03:31:14;;;;;;;3.10;1.50;;;8.20;96.70;;;;;;4982250;28;20042;-72
2023/03/29 03:34:13;;;;;;;4.22;2.03;;;8.20;96.70;;;;;;4929782;28;20074;-72
2023/03/29 03:37:00;;;;;;;1.85;1.27;;;8.20;96.70;;;;;;4980858;28;20042;-72
2023/03/29 03:39:32;;;;;;;5.10;1.40;;;8.20;96.70;;;;;;4984014;28;20038;-72
2023/03/29 03:42:02;;;;;;;2.95;1.42;;;8.10;96.70;;;;;;4999523;28;20092;-72
2023/03/29 03:44:38;;;;;;;;;;;8.10;96.70;;;;;;4981725;28;20298;-73
2023/03/29 03:47:39;;;;;;;1.83;1.10;;;8.20;96.70;;;;;;4989254;28;19932;-73
2023/03/29 03:50:32;;;;;;;2.67;1.23;;;8.20;96.70;;;;;;4971894;28;20050;-73
2023/03/29 03:53:00;;;;;;;5.72;1.40;;;8.00;96.70;;;;;;4991210;28;20509;-73
2023/03/29 03:55:48;;;;;;;1.95;1.10;;;8.00;96.70;;;;;;5013341;28;20046;-72
2023/03/29 03:58:21;;;;;;;1.27;0.90;;;8.00;96.70;;;;;;4983553;28;21260;-73
2023/03/29 04:00:50;;;;;;;3.00;0.90;;;8.10;96.70;;;;;;4987586;28;20108;-72
2023/03/29 04:03:43;;;;;;;2.30;0.95;;;7.90;96.70;;;;;;4995918;28;20554;-73
2023/03/29 04:06:16;;;;;;;2.20;0.85;;;7.90;96.70;;;;;;4988851;28;20054;-72
2023/03/29 04:09:08;;;;;;;1.80;0.90;;;8.00;96.70;;;;;;4989766;28;20061;-73
2023/03/29 04:11:41;;;;;;;2.38;0.93;;;8.10;96.70;;;;;;4989461;28;20427;-73
2023/03/29 04:14:11;;;;;;;1.45;0.93;;;8.20;96.70;;;;;;4969970;28;21195;-73
2023/03/29 04:16:59;;;;;;;1.15;0.75;;;8.20;96.70;;;;;;4981184;28;20050;-73
2023/03/29 04:19:45;;;;;;;1.33;0.80;;;8.30;96.70;;;;;;4984516;28;20156;-73
2023/03/29 04:22:15;;;;;;;2.15;1.15;;;8.20;96.70;;;;;;4999607;28;20073;-73
2023/03/29 04:24:44;;;;;;;1.30;0.90;;;8.30;96.70;;;;;;4990043;28;20073;-72
2023/03/29 04:27:33;;;;;;;2.38;1.10;;;8.20;96.70;;;;;;4991755;28;20050;-73
2023/03/29 04:30:07;;;;;;;2.35;1.08;;;8.10;96.70;;;;;;4999526;28;20057;-72
2023/03/29 04:33:09;;;;;;;3.15;1.20;;;8.00;96.70;;;;;;4958480;28;20066;-73
2023/03/29 04:35:41;;;;;;;3.28;1.42;;;7.90;96.70;;;;;;4981163;28;20147;-72
2023/03/29 04:38:15;;;;;;;2.45;1.25;;;7.90;96.70;;;;;;4985092;28;20210;-72
2023/03/29 04:40:46;;;;;;;1.98;1.00;;;7.90;96.70;;;;;;4991760;28;20066;-73
2023/03/29 04:43:37;;;;;;;1.63;0.75;;;7.90;96.70;;;;;;4989622;28;20138;-73
2023/03/29 04:46:20;;;;;;;1.73;0.93;;;7.90;96.70;;;;;;4979011;28;20038;-72
2023/03/29 04:49:21;;;;;;;2.30;1.20;;;7.90;96.70;;;;;;4941638;28;20090;-72
2023/03/29 04:51:53;;;;;;;2.15;0.93;;;7.90;96.70;;;;;;4924833;29;20083;-72
2023/03/29 04:54:27;;;;;;;1.95;0.73;;;7.90;96.70;;;;;;4940477;28;20567;-73
2023/03/29 04:56:59;;;;;;;1.67;0.98;;;7.90;96.70;;;;;;4958614;28;20604;-72
2023/03/29 04:59:45;;;;;;;2.30;1.05;;;7.90;96.70;;;;;;4962993;28;20061;-72
2023/03/29 05:02:32;;;;;;;1.27;0.73;;;7.90;96.70;;;;;;4934088;28;20047;-72
2023/03/29 05:05:00;;;;;;;1.90;1.00;;;7.90;96.70;;;;;;4929923;28;20058;-72
2023/03/29 05:07:30;;;;;;;2.53;1.30;;;7.80;96.70;;;;;;4946729;28;20051;-74
2023/03/29 05:09:59;;;;;;;6.15;1.20;;;7.80;96.70;;;;;;4958202;28;20505;-73
2023/03/29 05:12:27;;;;;;;2.60;0.80;;;7.70;96.70;;;;;;4931916;29;20772;-73
2023/03/29 05:14:56;;;;;;;2.35;0.93;;;7.60;96.70;;;;;;4953264;28;20054;-73
2023/03/29 05:17:26;;;;;;;1.98;1.00;;;7.70;96.70;;;;;;4930390;28;20198;-73
2023/03/29 05:20:00;;;;;;;3.97;1.13;;;7.70;96.70;;;;;;4943005;28;20047;-72
2023/03/29 05:22:28;;;;;;;2.20;0.90;;;7.60;96.70;;;;;;4944372;28;20047;-73
2023/03/29 05:24:56;;;;;;;3.15;0.90;;;7.60;96.70;;;;;;4965358;28;20053;-72
2023/03/29 05:27:26;;;;;;;3.08;1.33;;;7.60;96.70;;;;;;4973116;28;20785;-72
2023/03/29 05:30:02;;;;;;;3.97;1.00;;;7.70;96.70;;;;;;4984469;28;20057;-73
2023/03/29 05:33:01;;;;;;;1.73;0.98;;;7.70;96.70;;;;;;4935338;28;20051;-73
2023/03/29 05:35:30;;;;;;;2.53;1.48;;;7.60;96.70;;;;;;4933930;28;20548;-72
2023/03/29 05:38:04;;;;;;;5.75;1.30;;;7.70;96.70;;;;;;4935081;28;20094;-73
2023/03/29 05:40:34;;;;;;;3.05;1.73;;;7.70;96.70;;;;;;4924101;29;20581;-73
2023/03/29 05:43:27;;;;;;;4.53;2.85;;;7.70;96.70;;;;;;4932129;28;20047;-72
2023/03/29 05:45:55;;;;;;;6.47;2.90;;;7.40;96.70;;;;;;4927651;28;20051;-73
2023/03/29 05:48:26;;;;;;;5.90;3.38;;;7.50;96.70;;;;;;4936499;29;20089;-73
2023/03/29 05:50:56;;;;;;;3.97;2.70;;;7.70;96.70;;;;;;4933438;29;20062;-74
2023/03/29 05:53:26;;;;;;;4.43;2.08;;;7.70;96.70;;;;;;4927388;28;20074;-74
2023/03/29 05:55:55;;;;;;;6.22;2.72;;;7.70;96.70;;;;;;4934508;28;20416;-73
2023/03/29 05:58:27;;;;;;;5.50;2.70;;;7.70;96.70;;;;;;4928034;28;20106;-73
2023/03/29 06:00:55;;;;;;;5.53;2.85;;;7.60;96.70;;;;;;4940143;28;20750;-73
2023/03/29 06:03:46;;;;;;;5.55;2.60;;;7.70;96.70;;;;;;4950894;28;20607;-73
2023/03/29 06:06:16;;;;;;;3.45;2.33;;;7.80;96.70;;;;;;4931120;28;20039;-73
2023/03/29 06:08:45;;;;;;;2.83;1.95;;;7.90;96.70;;;;;;4946245;28;20133;-74
2023/03/29 06:11:27;;;;;;;4.38;2.38;;;7.90;96.70;;;;;;4982274;28;20576;-73
2023/03/29 06:14:03;;;;;;;3.42;1.92;;;8.00;96.70;;;;;;4990150;28;20050;-72
2023/03/29 06:16:32;;;;;;;5.05;1.75;;;8.10;96.70;;;;;;4992496;28;20054;-73
2023/03/29 06:19:00;;;;;;;5.20;2.20;;;8.20;96.70;;;;;;4993163;28;20066;-73
2023/03/29 06:21:30;;;;;;;6.38;2.60;;;8.10;96.70;;;;;;4996247;28;20535;-73
2023/03/29 06:23:59;;;;;;;4.00;2.03;;;8.30;96.70;;;;;;4984731;28;20096;-73
2023/03/29 06:26:32;;;;;;;4.07;2.13;;;8.40;96.70;;;;;;4984436;28;20570;-72
2023/03/29 06:29:03;;;;;;;5.90;2.45;;;8.50;96.70;;;;;;4987030;28;20042;-73
2023/03/29 06:31:34;;;;;;;5.82;2.50;;;8.30;96.70;;;;;;4983795;28;20516;-73
2023/03/29 06:34:05;;;;;;;7.65;2.67;;;8.10;96.70;;;;;;5001854;28;20137;-73
2023/03/29 06:36:59;;;;;;;5.90;2.55;;;8.00;96.70;;;;;;4978855;28;20107;-73
2023/03/29 06:39:28;;;;;;;4.45;2.80;;;8.30;96.70;;;;;;4996222;28;20507;-73
2023/03/29 06:42:31;;;;;;;9.35;2.72;;;8.50;96.70;;;;;;4972421;28;20086;-73
2023/03/29 06:45:21;;;;;;;4.82;2.40;;;8.80;96.70;;;;;;4961236;28;20191;-72
2023/03/29 06:47:53;;;;;;;7.13;2.90;;;8.90;96.70;;;;;;4957741;28;20743;-73
2023/03/29 06:50:23;;;;;;;3.97;2.55;;;8.80;96.70;;;;;;4958702;28;20947;-73
2023/03/29 06:52:57;;;;;;;4.97;2.60;;;8.80;96.70;;;;;;4956839;28;20059;-72
2023/03/29 06:55:26;;;;;;;5.43;3.13;;;8.90;96.70;;;;;;4955910;28;20382;-73
2023/03/29 06:57:55;;;;;;;5.38;3.47;;;9.00;96.70;;;;;;4953159;28;20058;-73
2023/03/29 07:00:28;;;;;;;6.65;3.05;;;9.00;96.70;;;;;;4960829;28;20062;-73
2023/03/29 07:03:23;;;;;;;8.05;3.85;;;9.00;96.70;;;;;;4950360;28;20060;-72
2023/03/29 07:06:01;;;;;;;6.65;3.83;;;9.30;96.70;;;;;;4941809;29;20055;-73
2023/03/29 07:08:33;;;;;;;7.32;3.63;;;9.50;96.70;;;;;;4963275;28;20147;-73
2023/03/29 07:11:07;;;;;;;6.93;3.75;;;9.30;96.70;;;;;;4950993;28;20055;-73
2023/03/29 07:13:56;;;;;;;6.93;3.97;;;9.40;96.70;;;;;;4942172;28;20644;-73
2023/03/29 07:16:27;;;;;;;5.80;3.38;;;9.40;96.70;;;;;;4975433;28;20049;-73
2023/03/29 07:19:08;;;;;;;6.07;3.30;;;9.50;96.70;;;;;;4982167;28;20094;-73
2023/03/29 07:21:54;;;;;;;7.72;3.50;;;9.80;96.70;;;;;;4982262;28;20448;-72
2023/03/29 07:24:34;;;;;;;5.53;3.78;;;10.00;96.70;;;;;;4998389;28;20053;-73
2023/03/29 07:27:02;;;;;;;7.22;3.15;;;10.00;96.70;;;;;;4983183;28;20070;-72
2023/03/29 07:29:33;;;;;;;5.40;2.80;;;10.10;96.70;;;;;;4987241;28;20049;-73
2023/03/29 07:32:04;;;;;;;4.65;2.42;;;10.10;96.70;;;;;;4990072;28;20073;-74
2023/03/29 07:34:41;;;;;;;6.57;3.35;;;10.20;96.70;;;;;;5001488;28;20407;-72
2023/03/29 07:37:18;;;;;;;6.95;3.42;;;10.30;96.70;;;;;;4997954;28;20128;-72
2023/03/29 07:39:46;;;;;;;10.00;6.55;;;10.40;96.70;;;;;;4987706;28;20050;-72
2023/03/29 07:42:35;;;;;;;7.22;4.22;;;10.50;96.70;;;;;;4983707;28;20053;-72
2023/03/29 07:45:06;;;;;;;8.93;5.38;;;10.40;96.70;;;;;;4982417;28;20660;-73
2023/03/29 07:47:44;;;;;;;7.32;4.85;;;10.50;96.70;;;;;;4996609;28;20128;-73
2023/03/29 07:50:13;;;;;;;7.93;5.95;;;10.60;96.70;;;;;;4994540;28;20046;-73
2023/03/29 07:52:42;;;;;;;8.80;5.60;;;10.70;96.70;;;;;;4998767;28;20050;-72
2023/03/29 07:55:12;;;;;;;7.38;5.22;;;10.70;96.70;;;;;;4984845;28;20057;-73
2023/03/29 07:57:55;;;;;;;7.03;3.95;;;10.70;96.70;;;;;;4982504;28;20054;-73
2023/03/29 08:00:24;;;;;;;5.60;3.92;;;10.80;96.70;;;;;;4981969;28;20050;-73
2023/03/29 08:03:15;;;;;;;6.30;3.83;;;10.90;96.70;;;;;;4992501;28;20047;-73
2023/03/29 08:05:43;;;;;;;5.75;3.35;;;11.00;96.70;;;;;;4981990;28;20116;-73
2023/03/29 08:08:15;;;;;;;6.18;3.03;;;11.10;96.70;;;;;;4997961;28;20483;-73
2023/03/29 08:10:50;;;;;;;5.47;3.10;;;11.20;96.70;;;;;;4990247;28;20049;-72
2023/03/29 08:13:35;;;;;;;4.28;3.08;;;11.30;96.70;;;;;;4987610;28;20234;-73
2023/03/29 08:16:34;;;;;;;4.90;2.85;;;11.40;96.70;;;;;;4995395;28;20140;-73
2023/03/29 08:19:09;;;;;;;6.50;3.20;;;11.50;96.70;;;;;;4996742;28;20522;-73
2023/03/29 08:21:59;;;;;;;6.13;3.75;;;11.50;96.70;;;;;;4980899;28;20047;-72
2023/03/29 08:24:36;;;;;;;;;;;11.60;96.70;;;;;;4981984;28;20534;-73
2023/03/29 08:27:06;;;;;;;8.93;4.20;;;11.60;96.70;;;;;;4982027;28;19932;-72
2023/03/29 08:29:35;;;;;;;7.72;3.90;;;11.60;96.70;;;;;;4987245;28;20117;-73
2023/03/29 08:32:03;;;;;;;7.93;4.50;;;11.70;96.70;;;;;;4982242;28;20149;-73
2023/03/29 08:34:34;;;;;;;7.22;4.43;;;11.90;96.70;;;;;;5013494;28;20147;-72
2023/03/29 08:37:24;;;;;;;7.97;4.70;;;12.00;96.70;;;;;;5000036;28;20049;-73
2023/03/29 08:39:55;;;;;;;7.20;4.80;;;12.10;96.70;;;;;;4997655;28;20053;-72
2023/03/29 08:43:14;;;;;;;10.15;4.97;;;12.10;96.70;;;;;;5000867;28;20400;-72
2023/03/29 08:46:19;;;;;;;7.05;5.10;;;12.20;96.70;;;;;;4984808;28;20047;-72
2023/03/29 08:48:53;;;;;;;8.35;5.32;;;12.20;96.70;;;;;;4988088;28;20516;-72
2023/03/29 08:51:29;;;;;;;8.25;6.10;;;12.40;96.70;;;;;;4988090;28;20492;-72
2023/03/29 08:54:00;;;;;;;11.23;5.72;;;12.50;96.70;;;;;;4984835;28;20077;-72
2023/03/29 08:56:46;;;;;;;8.70;4.53;;;12.60;96.70;;;;;;4985383;28;20050;-73
2023/03/29 08:59:28;;;;;;;9.00;4.80;;;12.70;96.70;;;;;;4987322;28;20046;-72
2023/03/29 09:02:01;;;;;;;8.02;4.72;;;12.80;96.70;;;;;;5005607;28;20144;-73
2023/03/29 09:04:33;;;;;;;6.22;4.32;;;12.80;96.70;;;;;;5016272;28;20049;-73
2023/03/29 09:07:29;;;;;;;6.97;4.50;;;12.90;96.70;;;;;;4992973;28;20068;-72
2023/03/29 09:09:58;;;;;;;5.80;3.65;;;13.00;96.70;;;;;;5005715;28;20046;-72
2023/03/29 09:12:43;;;;;;;7.25;5.10;;;13.10;96.70;;;;;;5002756;28;20307;-73
2023/03/29 09:15:15;;;;;;;7.68;4.07;;;13.20;96.70;;;;;;4988121;28;20053;-72
2023/03/29 09:18:02;;;;;;;8.20;4.30;;;13.20;96.70;;;;;;5003967;28;20510;-72
2023/03/29 09:20:39;;;;;;;6.68;4.03;;;13.30;96.70;;;;;;5001229;28;20644;-72
2023/03/29 09:23:43;;;;;;;6.88;3.65;;;13.30;96.70;;;;;;5024596;28;20046;-72
2023/03/29 09:26:33;;;;;;;8.13;3.97;;;13.30;96.70;;;;;;5002804;28;20046;-72
2023/03/29 09:29:32;;;;;;;5.35;3.75;;;13.40;96.70;;;;;;4994522;28;20154;-73
2023/03/29 09:32:03;;;;;;;9.38;4.28;;;13.50;96.70;;;;;;4979161;28;20053;-72
2023/03/29 09:34:40;;;;;;;7.38;3.78;;;13.60;96.70;;;;;;4989018;28;20046;-73
2023/03/29 09:37:21;;;;;;;6.72;4.47;;;13.80;96.70;;;;;;4989872;28;20050;-73
2023/03/29 09:39:54;;;;;;;7.40;4.40;;;14.00;96.70;;;;;;4985288;28;20505;-72
2023/03/29 09:42:29;;;;;;;8.18;4.25;;;14.10;96.70;;;;;;4989042;28;20042;-72
2023/03/29 09:45:07;;;;;;;5.80;3.85;;;14.10;96.70;;;;;;5005056;28;20444;-72
2023/03/29 09:47:46;;;;;;;6.90;3.65;;;14.10;96.70;;;;;;5001448;28;20454;-72
2023/03/29 09:50:20;;;;;;;5.68;3.53;;;14.20;96.70;;;;;;4990429;28;20600;-73
2023/03/29 09:53:01;;;;;;;4.90;3.53;;;14.00;96.70;;;;;;5004502;28;20045;-73
2023/03/29 09:55:35;;;;;;;5.72;3.47;;;14.10;96.70;;;;;;4980233;28;20301;-72
2023/03/29 09:58:26;;;;;;;6.47;3.72;;;14.10;96.70;;;;;;5004992;28;20056;-72
2023/03/29 10:00:57;;;;;;;6.95;3.20;;;14.20;96.70;;;;;;4995648;28;20053;-72
2023/03/29 10:03:28;;;;;;;3.85;2.78;;;14.30;96.70;;;;;;5010233;28;20041;-73
2023/03/29 10:06:08;;;;;;;8.82;3.38;;;14.50;96.70;;;;;;4981638;28;20537;-73
2023/03/29 10:08:43;;;;;;;5.50;3.75;;;14.50;96.70;;;;;;5003166;28;20112;-73
2023/03/29 10:11:20;;;;;;;6.32;3.30;;;14.50;96.70;;;;;;5020271;28;20072;-72
2023/03/29 10:13:53;;;;;;;4.70;3.00;;;14.50;96.70;;;;;;5004893;28;20049;-73
2023/03/29 10:16:23;;;;;;;7.15;3.65;;;14.50;96.70;;;;;;5004382;28;20419;-72
2023/03/29 10:18:53;;;;;;;7.55;3.80;;;14.50;96.70;;;;;;5003748;28;20045;-73
2023/03/29 10:21:22;;;;;;;8.82;4.03;;;14.50;96.70;;;;;;5019968;28;20049;-73
2023/03/29 10:23:58;;;;;;;7.75;3.92;;;14.60;96.70;;;;;;5004334;28;20045;-72
2023/03/29 10:26:31;;;;;;;7.90;3.78;;;14.60;96.70;;;;;;4986920;28;20144;-72
2023/03/29 10:29:03;;;;;;;7.60;3.95;;;14.70;96.70;;;;;;5003216;28;20661;-73
2023/03/29 10:31:32;;;;;;;8.52;4.60;;;14.70;96.70;;;;;;5012954;28;20049;-73
2023/03/29 10:34:03;;;;;;;8.73;4.00;;;14.70;96.70;;;;;;5012238;28;20046;-72
2023/03/29 10:36:31;;;;;;;10.88;4.50;;;14.80;96.70;;;;;;5000544;28;20640;-73
2023/03/29 10:39:01;;;;;;;8.00;3.70;;;14.90;96.70;;;;;;4996532;28;20041;-72
2023/03/29 10:41:34;;;;;;;9.20;3.85;;;15.00;96.70;;;;;;4986991;28;20687;-72
2023/03/29 10:44:03;;;;;;;6.88;3.63;;;15.00;96.70;;;;;;5003486;28;20069;-72
2023/03/29 10:46:38;;;;;;;6.20;3.58;;;15.00;96.70;;;;;;4998423;28;20045;-72
2023/03/29 10:49:17;;;;;;;6.55;4.60;;;15.10;96.70;;;;;;5014899;28;20120;-72
2023/03/29 10:51:48;;;;;;;7.55;3.65;;;15.30;96.70;;;;;;5004028;28;20044;-73
2023/03/29 10:54:19;;;;;;;4.38;2.75;;;15.50;96.70;;;;;;4978148;28;20506;-73
2023/03/29 10:56:54;;;;;;;6.43;3.42;;;15.70;96.70;;;;;;5001730;28;20053;-72
2023/03/29 10:59:30;;;;;;;4.72;2.10;;;15.90;96.70;;;;;;5004869;28;20046;-72
2023/03/29 11:02:29;;;;;;;4.85;2.15;;;16.10;96.70;;;;;;5022434;28;20048;-73
2023/03/29 11:05:09;;;;;;;6.07;2.08;;;16.10;96.70;;;;;;5011889;28;20128;-72
2023/03/29 11:07:48;;;;;;;3.53;1.50;;;16.20;96.70;;;;;;5011267;28;20057;-73
2023/03/29 11:10:30;;;;;;;3.20;1.10;;;16.20;96.70;;;;;;4993606;28;20509;-72
2023/03/29 11:13:09;;;;;;;3.78;1.20;;;16.40;96.70;;;;;;5014451;28;20491;-72
2023/03/29 11:15:53;;;;;;;4.53;2.20;;;16.40;96.70;;;;;;5003889;28;20111;-72
2023/03/29 11:18:46;;;;;;;5.80;1.55;;;16.30;96.70;;;;;;4998561;28;20103;-72
2023/03/29 11:21:23;;;;;;;8.43;2.20;;;16.40;96.70;;;;;;4969528;28;20069;-72
2023/03/29 11:24:04;;;;;;;6.05;1.75;;;16.50;96.70;;;;;;4985211;28;20173;-72
2023/03/29 11:26:41;;;;;;;6.82;2.30;;;16.70;96.70;;;;;;4993584;28;20037;-72
2023/03/29 11:29:15;;;;;;;4.82;1.90;;;16.70;96.70;;;;;;5011958;28;20041;-73
2023/03/29 11:31:55;;;;;;;9.10;1.88;;;16.80;96.70;;;;;;4992812;28;20603;-72
2023/03/29 11:34:31;;;;;;;4.85;1.75;;;16.80;96.70;;;;;;4988747;28;20418;-73
2023/03/29 11:37:21;;;;;;;4.28;1.40;;;16.70;96.70;;;;;;4994987;28;20825;-72
2023/03/29 11:40:03;;;;;;;4.13;1.30;;;16.40;96.70;;;;;;4997633;28;20076;-72
2023/03/29 11:42:38;;;;;;;4.95;1.60;;;16.30;96.70;;;;;;4988625;28;20054;-72
2023/03/29 11:45:15;;;;;;;4.43;1.40;;;16.20;96.70;;;;;;5014327;28;20789;-73
2023/03/29 11:47:45;;;;;;;6.18;1.17;;;16.00;96.70;;;;;;5022560;28;20046;-74
2023/03/29 11:50:19;;;;;;;5.82;1.30;;;15.90;96.70;;;;;;4973564;28;20481;-74
2023/03/29 11:52:52;;;;;;;5.28;1.33;;;15.80;96.70;;;;;;5008685;28;20046;-73
2023/03/29 11:55:25;;;;;;;11.48;5.32;;;15.60;96.70;;;;;;4984263;28;20180;-73
2023/03/29 11:57:57;;;;;;;3.95;1.45;;;15.70;96.70;;;;;;4989037;28;20061;-73
2023/03/29 12:00:33;;;;;;;5.63;1.50;;;15.80;96.70;;;;;;4998645;28;20058;-74
2023/03/29 12:03:11;;;;;;;5.03;1.48;;;15.90;96.70;;;;;;4993159;28;20054;-73
2023/03/29 12:05:44;;;;;;;4.55;1.00;;;16.10;96.70;;;;;;4993656;28;20045;-72
2023/03/29 12:08:15;;;;;;;10.27;1.58;;;16.50;96.70;;;;;;4998195;28;20077;-73
2023/03/29 12:10:50;;;;;;;5.28;1.48;;;16.80;96.70;;;;;;5000796;28;20050;-73
2023/03/29 12:13:23;;;;;;;3.92;1.25;;;17.10;96.70;;;;;;5017715;28;20438;-75
2023/03/29 12:15:57;;;;;;;5.47;1.45;;;17.20;96.70;;;;;;5007130;28;20396;-74
2023/03/29 12:18:29;;;;;;;4.68;2.00;;;17.00;96.70;;;;;;5016228;28;20049;-74
2023/03/29 12:21:00;;;;;;;5.10;1.38;;;17.00;96.70;;;;;;5007298;28;20511;-75
2023/03/29 12:23:32;;;;;;;4.72;1.33;;;16.80;96.70;;;;;;4988034;28;20115;-74
2023/03/29 12:26:05;;;;;;;3.58;1.40;;;16.70;96.70;;;;;;5003067;28;20137;-74
2023/03/29 12:28:55;;;;;;;4.15;1.13;;;16.60;96.70;;;;;;5007590;28;20050;-75
2023/03/29 12:31:31;;;;;;;2.72;1.27;;;16.50;96.70;;;;;;5017379;28;20046;-74
2023/03/29 12:34:21;;;;;;;5.50;1.42;;;16.30;96.70;;;;;;4999254;28;20045;-73
2023/03/29 12:37:12;;;;;;;4.90;1.13;;;16.10;96.70;;;;;;4996202;28;20507;-73
2023/03/29 12:40:11;;;;;;;5.60;1.55;;;15.90;96.70;;;;;;5004566;28;20064;-73
2023/03/29 12:43:01;;;;;;;6.90;1.75;;;15.90;96.70;;;;;;4993947;28;20056;-72
2023/03/29 12:45:54;;;;;;;6.15;1.42;;;16.00;96.70;;;;;;4996203;28;20446;-74
2023/03/29 12:48:28;;;;;;;6.47;1.55;;;16.10;96.70;;;;;;4986628;28;20622;-73
2023/03/29 12:51:00;;;;;;;3.42;1.50;;;16.30;96.70;;;;;;5009031;28;20530;-73
2023/03/29 12:53:33;;;;;;;6.43;1.55;;;16.30;96.70;;;;;;5011248;28;20443;-73
2023/03/29 12:56:14;;;;;;;6.22;1.42;;;16.40;96.70;;;;;;4994655;28;20298;-73
2023/03/29 12:58:54;;;;;;;3.40;1.25;;;16.50;96.70;;;;;;5009929;28;20484;-72
2023/03/29 13:01:28;;;;;;;3.33;1.38;;;16.40;96.70;;;;;;4988528;28;20136;-73
2023/03/29 13:04:14;;;;;;;5.05;1.33;;;16.30;96.70;;;;;;5005597;28;20585;-72
2023/03/29 13:07:01;;;;;;;3.72;1.13;;;16.20;96.70;;;;;;4987887;28;20572;-72
2023/03/29 13:09:36;;;;;;;3.45;1.35;;;16.20;96.70;;;;;;4992453;28;20045;-72
2023/03/29 13:12:07;;;;;;;4.07;1.30;;;16.20;96.70;;;;;;5021532;28;20045;-72
2023/03/29 13:14:39;;;;;;;4.45;1.13;;;16.20;96.70;;;;;;5003547;28;20053;-73
2023/03/29 13:17:17;;;;;;;3.17;1.10;;;16.30;96.70;;;;;;5016880;28;20100;-72
2023/03/29 13:19:57;;;;;;;6.03;1.15;;;16.30;96.70;;;;;;5019253;28;20041;-72
2023/03/29 13:23:04;;;;;;;4.55;1.10;;;16.30;96.70;;;;;;5007299;28;20049;-72
2023/03/29 13:25:44;;;;;;;4.47;1.38;;;16.30;96.70;;;;;;4994572;28;20054;-73
2023/03/29 13:28:22;;;;;;;4.53;1.45;;;16.30;96.70;;;;;;4988816;28;20417;-72
2023/03/29 13:30:58;;;;;;;3.75;1.13;;;16.40;96.70;;;;;;4995162;28;20064;-72
2023/03/29 13:33:48;;;;;;;3.35;1.42;;;16.50;96.70;;;;;;5020280;28;20041;-72
2023/03/29 13:36:32;;;;;;;3.58;1.45;;;16.40;96.70;;;;;;5022139;28;20050;-72
2023/03/29 13:39:04;;;;;;;4.88;1.38;;;16.50;96.70;;;;;;4987576;28;20065;-72